sensor_id;sensor_type;location;lat;lon;timestamp;temperature;humidity
3356;DHT22;1691;52.486;13.374;2023-04-06T00:01:08;5.00;74.80
3356;DHT22;1691;52.486;13.374;2023-04-06T00:03:35;5.00;75.00
3356;DHT22;1691;52.486;13.374;2023-04-06T00:06:03;5.00;75.00
3356;DHT22;1691;52.486;13.374;2023-04-06T00:08:30;5.00;75.20
3356;DHT22;1691;52.486;13.374;2023-04-06T00:10:57;5.00;75.20
3356;DHT22;1691;52.486;13.374;2023-04-06T00:13:24;4.90;75.40
3356;DHT22;1691;52.486;13.374;2023-04-06T00:15:52;5.00;75.40
3356;DHT22;1691;52.486;13.374;2023-04-06T00:18:19;5.00;75.40
3356;DHT22;1691;52.486;13.374;2023-04-06T00:20:46;5.00;75.60
3356;DHT22;1691;52.486;13.374;2023-04-06T00:23:13;5.00;75.60
3356;DHT22;1691;52.486;13.374;2023-04-06T00:25:40;4.90;75.60
3356;DHT22;1691;52.486;13.374;2023-04-06T00:28:07;4.90;75.70
3356;DHT22;1691;52.486;13.374;2023-04-06T00:30:35;4.90;75.70
3356;DHT22;1691;52.486;13.374;2023-04-06T00:33:03;4.90;75.70
3356;DHT22;1691;52.486;13.374;2023-04-06T00:35:31;4.80;75.90
3356;DHT22;1691;52.486;13.374;2023-04-06T00:37:58;4.80;75.90
3356;DHT22;1691;52.486;13.374;2023-04-06T00:40:25;4.80;76.10
3356;DHT22;1691;52.486;13.374;2023-04-06T00:42:55;4.80;76.10
3356;DHT22;1691;52.486;13.374;2023-04-06T00:45:22;4.80;76.10
3356;DHT22;1691;52.486;13.374;2023-04-06T00:47:49;4.70;76.30
3356;DHT22;1691;52.486;13.374;2023-04-06T00:50:17;4.70;76.30
3356;DHT22;1691;52.486;13.374;2023-04-06T00:52:44;4.70;76.50
3356;DHT22;1691;52.486;13.374;2023-04-06T00:55:11;4.60;76.50
3356;DHT22;1691;52.486;13.374;2023-04-06T00:57:39;4.60;76.70
3356;DHT22;1691;52.486;13.374;2023-04-06T01:00:07;4.60;76.70
3356;DHT22;1691;52.486;13.374;2023-04-06T01:02:34;4.50;77.00
3356;DHT22;1691;52.486;13.374;2023-04-06T01:05:02;4.50;77.20
3356;DHT22;1691;52.486;13.374;2023-04-06T01:07:29;4.50;77.20
3356;DHT22;1691;52.486;13.374;2023-04-06T01:09:57;4.50;77.20
3356;DHT22;1691;52.486;13.374;2023-04-06T01:12:24;4.50;77.40
3356;DHT22;1691;52.486;13.374;2023-04-06T01:14:51;4.50;77.40
3356;DHT22;1691;52.486;13.374;2023-04-06T01:17:19;4.50;77.40
3356;DHT22;1691;52.486;13.374;2023-04-06T01:19:46;4.50;77.60
3356;DHT22;1691;52.486;13.374;2023-04-06T01:22:16;4.50;77.60
3356;DHT22;1691;52.486;13.374;2023-04-06T01:24:44;4.50;77.80
3356;DHT22;1691;52.486;13.374;2023-04-06T01:27:12;4.50;77.80
3356;DHT22;1691;52.486;13.374;2023-04-06T01:29:39;4.50;77.80
3356;DHT22;1691;52.486;13.374;2023-04-06T01:32:09;4.50;77.80
3356;DHT22;1691;52.486;13.374;2023-04-06T01:34:36;4.50;78.00
3356;DHT22;1691;52.486;13.374;2023-04-06T01:37:04;4.50;78.00
3356;DHT22;1691;52.486;13.374;2023-04-06T01:39:31;4.50;78.00
3356;DHT22;1691;52.486;13.374;2023-04-06T01:41:58;4.50;78.00
3356;DHT22;1691;52.486;13.374;2023-04-06T01:44:25;4.50;78.20
3356;DHT22;1691;52.486;13.374;2023-04-06T01:46:52;4.50;78.20
3356;DHT22;1691;52.486;13.374;2023-04-06T01:49:20;4.50;78.20
3356;DHT22;1691;52.486;13.374;2023-04-06T01:51:47;4.50;78.30
3356;DHT22;1691;52.486;13.374;2023-04-06T01:54:14;4.50;78.30
3356;DHT22;1691;52.486;13.374;2023-04-06T01:56:41;4.50;78.30
3356;DHT22;1691;52.486;13.374;2023-04-06T01:59:08;4.50;78.30
3356;DHT22;1691;52.486;13.374;2023-04-06T02:01:36;4.50;78.50
3356;DHT22;1691;52.486;13.374;2023-04-06T02:04:03;4.40;78.50
3356;DHT22;1691;52.486;13.374;2023-04-06T02:06:30;4.40;78.50
3356;DHT22;1691;52.486;13.374;2023-04-06T02:08:57;4.40;78.50
3356;DHT22;1691;52.486;13.374;2023-04-06T02:11:25;4.40;78.70
3356;DHT22;1691;52.486;13.374;2023-04-06T02:13:52;4.30;78.90
3356;DHT22;1691;52.486;13.374;2023-04-06T02:16:19;4.30;78.90
3356;DHT22;1691;52.486;13.374;2023-04-06T02:18:46;4.20;79.10
3356;DHT22;1691;52.486;13.374;2023-04-06T02:21:13;4.20;79.10
3356;DHT22;1691;52.486;13.374;2023-04-06T02:23:40;4.10;79.10
3356;DHT22;1691;52.486;13.374;2023-04-06T02:26:07;4.10;79.10
3356;DHT22;1691;52.486;13.374;2023-04-06T02:28:34;4.00;79.30
3356;DHT22;1691;52.486;13.374;2023-04-06T02:31:01;3.90;79.50
3356;DHT22;1691;52.486;13.374;2023-04-06T02:33:29;3.90;79.70
3356;DHT22;1691;52.486;13.374;2023-04-06T02:35:56;3.90;79.80
3356;DHT22;1691;52.486;13.374;2023-04-06T02:38:23;3.80;79.80
3356;DHT22;1691;52.486;13.374;2023-04-06T02:40:50;3.70;80.00
3356;DHT22;1691;52.486;13.374;2023-04-06T02:43:18;3.70;80.00
3356;DHT22;1691;52.486;13.374;2023-04-06T02:45:45;3.70;80.20
3356;DHT22;1691;52.486;13.374;2023-04-06T02:48:13;3.60;80.20
3356;DHT22;1691;52.486;13.374;2023-04-06T02:50:40;3.50;80.20
3356;DHT22;1691;52.486;13.374;2023-04-06T02:53:07;3.50;80.40
3356;DHT22;1691;52.486;13.374;2023-04-06T02:55:34;3.40;80.60
3356;DHT22;1691;52.486;13.374;2023-04-06T02:58:01;3.30;81.10
3356;DHT22;1691;52.486;13.374;2023-04-06T03:00:29;3.20;81.30
3356;DHT22;1691;52.486;13.374;2023-04-06T03:02:56;3.20;81.70
3356;DHT22;1691;52.486;13.374;2023-04-06T03:05:23;3.10;81.90
3356;DHT22;1691;52.486;13.374;2023-04-06T03:07:50;3.00;82.30
3356;DHT22;1691;52.486;13.374;2023-04-06T03:10:17;2.90;82.60
3356;DHT22;1691;52.486;13.374;2023-04-06T03:12:44;2.90;82.80
3356;DHT22;1691;52.486;13.374;2023-04-06T03:15:12;2.80;82.80
3356;DHT22;1691;52.486;13.374;2023-04-06T03:17:39;2.80;83.20
3356;DHT22;1691;52.486;13.374;2023-04-06T03:20:06;2.70;83.40
3356;DHT22;1691;52.486;13.374;2023-04-06T03:22:34;2.70;83.40
3356;DHT22;1691;52.486;13.374;2023-04-06T03:25:01;2.60;83.80
3356;DHT22;1691;52.486;13.374;2023-04-06T03:27:29;2.60;84.10
3356;DHT22;1691;52.486;13.374;2023-04-06T03:29:56;2.50;84.30
3356;DHT22;1691;52.486;13.374;2023-04-06T03:32:24;2.50;84.30
3356;DHT22;1691;52.486;13.374;2023-04-06T03:34:51;2.50;84.30
3356;DHT22;1691;52.486;13.374;2023-04-06T03:37:18;2.40;84.50
3356;DHT22;1691;52.486;13.374;2023-04-06T03:39:45;2.40;84.70
3356;DHT22;1691;52.486;13.374;2023-04-06T03:42:12;2.40;84.90
3356;DHT22;1691;52.486;13.374;2023-04-06T03:44:39;2.40;84.90
3356;DHT22;1691;52.486;13.374;2023-04-06T03:47:07;2.30;84.90
3356;DHT22;1691;52.486;13.374;2023-04-06T03:49:34;2.30;85.10
3356;DHT22;1691;52.486;13.374;2023-04-06T03:52:01;2.30;85.20
3356;DHT22;1691;52.486;13.374;2023-04-06T03:54:29;2.30;85.40
3356;DHT22;1691;52.486;13.374;2023-04-06T03:56:56;2.20;85.60
3356;DHT22;1691;52.486;13.374;2023-04-06T03:59:23;2.20;85.80
3356;DHT22;1691;52.486;13.374;2023-04-06T04:01:50;2.20;85.80
3356;DHT22;1691;52.486;13.374;2023-04-06T04:04:17;2.20;86.00
3356;DHT22;1691;52.486;13.374;2023-04-06T04:06:45;2.20;86.40
3356;DHT22;1691;52.486;13.374;2023-04-06T04:09:12;2.10;86.50
3356;DHT22;1691;52.486;13.374;2023-04-06T04:11:39;2.10;86.70
3356;DHT22;1691;52.486;13.374;2023-04-06T04:14:06;2.10;86.70
3356;DHT22;1691;52.486;13.374;2023-04-06T04:16:33;2.10;86.90
3356;DHT22;1691;52.486;13.374;2023-04-06T04:19:01;2.10;86.90
3356;DHT22;1691;52.486;13.374;2023-04-06T04:21:29;2.10;86.90
3356;DHT22;1691;52.486;13.374;2023-04-06T04:23:58;2.10;86.90
3356;DHT22;1691;52.486;13.374;2023-04-06T04:26:25;2.10;87.10
3356;DHT22;1691;52.486;13.374;2023-04-06T04:28:52;2.10;87.10
3356;DHT22;1691;52.486;13.374;2023-04-06T04:31:19;2.10;87.30
3356;DHT22;1691;52.486;13.374;2023-04-06T04:33:49;2.10;87.30
3356;DHT22;1691;52.486;13.374;2023-04-06T04:36:16;2.10;87.30
3356;DHT22;1691;52.486;13.374;2023-04-06T04:38:43;2.10;87.50
3356;DHT22;1691;52.486;13.374;2023-04-06T04:41:10;2.10;87.50
3356;DHT22;1691;52.486;13.374;2023-04-06T04:43:37;2.20;87.70
3356;DHT22;1691;52.486;13.374;2023-04-06T04:46:05;2.20;87.70
3356;DHT22;1691;52.486;13.374;2023-04-06T04:48:33;2.20;87.70
3356;DHT22;1691;52.486;13.374;2023-04-06T04:51:01;2.20;87.70
3356;DHT22;1691;52.486;13.374;2023-04-06T04:53:28;2.30;87.90
3356;DHT22;1691;52.486;13.374;2023-04-06T04:55:55;2.30;87.70
3356;DHT22;1691;52.486;13.374;2023-04-06T04:58:23;2.30;87.90
3356;DHT22;1691;52.486;13.374;2023-04-06T05:00:50;2.40;87.90
3356;DHT22;1691;52.486;13.374;2023-04-06T05:03:23;2.40;88.00
3356;DHT22;1691;52.486;13.374;2023-04-06T05:05:51;2.40;88.20
3356;DHT22;1691;52.486;13.374;2023-04-06T05:08:18;2.50;88.40
3356;DHT22;1691;52.486;13.374;2023-04-06T05:10:45;2.70;88.60
3356;DHT22;1691;52.486;13.374;2023-04-06T05:13:13;3.10;89.20
3356;DHT22;1691;52.486;13.374;2023-04-06T05:15:41;3.50;89.20
3356;DHT22;1691;52.486;13.374;2023-04-06T05:18:09;3.90;88.80
3356;DHT22;1691;52.486;13.374;2023-04-06T05:20:38;4.50;88.60
3356;DHT22;1691;52.486;13.374;2023-04-06T05:23:05;5.10;88.40
3356;DHT22;1691;52.486;13.374;2023-04-06T05:25:33;5.80;87.30
3356;DHT22;1691;52.486;13.374;2023-04-06T05:28:00;6.60;86.20
3356;DHT22;1691;52.486;13.374;2023-04-06T05:30:27;7.20;84.50
3356;DHT22;1691;52.486;13.374;2023-04-06T05:32:54;7.90;83.00
3356;DHT22;1691;52.486;13.374;2023-04-06T05:35:22;8.50;81.10
3356;DHT22;1691;52.486;13.374;2023-04-06T05:37:49;9.00;79.10
3356;DHT22;1691;52.486;13.374;2023-04-06T05:40:17;9.50;77.60
3356;DHT22;1691;52.486;13.374;2023-04-06T05:42:44;9.90;75.70
3356;DHT22;1691;52.486;13.374;2023-04-06T05:45:12;10.40;74.10
3356;DHT22;1691;52.486;13.374;2023-04-06T05:47:44;10.80;72.20
3356;DHT22;1691;52.486;13.374;2023-04-06T05:50:12;11.20;70.50
3356;DHT22;1691;52.486;13.374;2023-04-06T05:52:40;11.60;68.80
3356;DHT22;1691;52.486;13.374;2023-04-06T05:55:10;12.00;67.40
3356;DHT22;1691;52.486;13.374;2023-04-06T05:57:38;12.40;65.70
3356;DHT22;1691;52.486;13.374;2023-04-06T06:00:06;12.80;64.00
3356;DHT22;1691;52.486;13.374;2023-04-06T06:02:36;13.00;62.10
3356;DHT22;1691;52.486;13.374;2023-04-06T06:05:04;13.20;60.80
3356;DHT22;1691;52.486;13.374;2023-04-06T06:07:31;13.50;59.80
3356;DHT22;1691;52.486;13.374;2023-04-06T06:09:58;13.80;58.70
3356;DHT22;1691;52.486;13.374;2023-04-06T06:12:26;14.20;57.30
3356;DHT22;1691;52.486;13.374;2023-04-06T06:14:54;14.50;56.20
3356;DHT22;1691;52.486;13.374;2023-04-06T06:17:22;14.80;55.30
3356;DHT22;1691;52.486;13.374;2023-04-06T06:19:49;15.10;54.50
3356;DHT22;1691;52.486;13.374;2023-04-06T06:22:17;15.50;53.30
3356;DHT22;1691;52.486;13.374;2023-04-06T06:24:44;15.80;52.40
3356;DHT22;1691;52.486;13.374;2023-04-06T06:27:11;16.30;51.20
3356;DHT22;1691;52.486;13.374;2023-04-06T06:29:38;16.60;50.20
3356;DHT22;1691;52.486;13.374;2023-04-06T06:32:05;17.00;49.20
3356;DHT22;1691;52.486;13.374;2023-04-06T06:34:33;17.40;47.90
3356;DHT22;1691;52.486;13.374;2023-04-06T06:37:00;17.70;47.00
3356;DHT22;1691;52.486;13.374;2023-04-06T06:39:29;18.00;45.90
3356;DHT22;1691;52.486;13.374;2023-04-06T06:41:57;18.30;45.00
3356;DHT22;1691;52.486;13.374;2023-04-06T06:44:27;18.70;44.10
3356;DHT22;1691;52.486;13.374;2023-04-06T06:46:55;19.00;43.20
3356;DHT22;1691;52.486;13.374;2023-04-06T06:49:22;19.20;42.40
3356;DHT22;1691;52.486;13.374;2023-04-06T06:51:49;19.40;41.50
3356;DHT22;1691;52.486;13.374;2023-04-06T06:54:16;19.50;41.00
3356;DHT22;1691;52.486;13.374;2023-04-06T06:56:43;19.70;40.40
3356;DHT22;1691;52.486;13.374;2023-04-06T06:59:10;19.90;39.80
3356;DHT22;1691;52.486;13.374;2023-04-06T07:01:38;20.00;38.90
3356;DHT22;1691;52.486;13.374;2023-04-06T07:04:05;20.20;38.20
3356;DHT22;1691;52.486;13.374;2023-04-06T07:06:33;20.30;37.80
3356;DHT22;1691;52.486;13.374;2023-04-06T07:09:02;20.40;37.30
3356;DHT22;1691;52.486;13.374;2023-04-06T07:11:30;20.60;36.90
3356;DHT22;1691;52.486;13.374;2023-04-06T07:13:57;20.80;36.40
3356;DHT22;1691;52.486;13.374;2023-04-06T07:16:24;20.80;35.80
3356;DHT22;1691;52.486;13.374;2023-04-06T07:18:51;20.90;35.30
3356;DHT22;1691;52.486;13.374;2023-04-06T07:21:18;21.10;35.00
3356;DHT22;1691;52.486;13.374;2023-04-06T07:23:45;21.30;34.40
3356;DHT22;1691;52.486;13.374;2023-04-06T07:26:14;21.50;34.10
3356;DHT22;1691;52.486;13.374;2023-04-06T07:28:41;21.80;33.60
3356;DHT22;1691;52.486;13.374;2023-04-06T07:31:09;21.80;32.90
3356;DHT22;1691;52.486;13.374;2023-04-06T07:33:36;21.90;32.40
3356;DHT22;1691;52.486;13.374;2023-04-06T07:36:04;21.90;32.20
3356;DHT22;1691;52.486;13.374;2023-04-06T07:38:31;22.10;31.90
3356;DHT22;1691;52.486;13.374;2023-04-06T07:40:58;22.30;31.60
3356;DHT22;1691;52.486;13.374;2023-04-06T07:43:26;22.70;31.20
3356;DHT22;1691;52.486;13.374;2023-04-06T07:45:53;23.00;30.40
3356;DHT22;1691;52.486;13.374;2023-04-06T07:48:21;23.20;30.20
3356;DHT22;1691;52.486;13.374;2023-04-06T07:50:48;23.20;29.80
3356;DHT22;1691;52.486;13.374;2023-04-06T07:53:15;23.00;29.70
3356;DHT22;1691;52.486;13.374;2023-04-06T07:55:42;23.20;29.80
3356;DHT22;1691;52.486;13.374;2023-04-06T07:58:10;23.40;29.40
3356;DHT22;1691;52.486;13.374;2023-04-06T08:00:37;23.70;29.30
3356;DHT22;1691;52.486;13.374;2023-04-06T08:03:04;24.10;29.10
3356;DHT22;1691;52.486;13.374;2023-04-06T08:05:31;24.30;28.60
3356;DHT22;1691;52.486;13.374;2023-04-06T08:07:59;24.40;28.10
3356;DHT22;1691;52.486;13.374;2023-04-06T08:10:26;24.30;27.70
3356;DHT22;1691;52.486;13.374;2023-04-06T08:12:53;24.00;27.60
3356;DHT22;1691;52.486;13.374;2023-04-06T08:15:20;23.90;27.60
3356;DHT22;1691;52.486;13.374;2023-04-06T08:17:47;23.70;27.70
3356;DHT22;1691;52.486;13.374;2023-04-06T08:20:14;24.00;27.70
3356;DHT22;1691;52.486;13.374;2023-04-06T08:22:42;24.40;27.30
3356;DHT22;1691;52.486;13.374;2023-04-06T08:25:09;24.70;27.10
3356;DHT22;1691;52.486;13.374;2023-04-06T08:27:36;24.90;26.90
3356;DHT22;1691;52.486;13.374;2023-04-06T08:30:04;25.20;26.70
3356;DHT22;1691;52.486;13.374;2023-04-06T08:32:32;25.40;26.50
3356;DHT22;1691;52.486;13.374;2023-04-06T08:34:59;25.50;26.10
3356;DHT22;1691;52.486;13.374;2023-04-06T08:37:26;25.50;25.70
3356;DHT22;1691;52.486;13.374;2023-04-06T08:39:54;25.50;25.60
3356;DHT22;1691;52.486;13.374;2023-04-06T08:42:21;25.50;25.20
3356;DHT22;1691;52.486;13.374;2023-04-06T08:44:53;25.30;24.80
3356;DHT22;1691;52.486;13.374;2023-04-06T08:47:22;25.20;24.90
3356;DHT22;1691;52.486;13.374;2023-04-06T08:49:51;24.90;24.30
3356;DHT22;1691;52.486;13.374;2023-04-06T08:52:20;24.60;24.60
3356;DHT22;1691;52.486;13.374;2023-04-06T08:54:47;24.80;24.70
3356;DHT22;1691;52.486;13.374;2023-04-06T08:57:15;25.00;24.60
3356;DHT22;1691;52.486;13.374;2023-04-06T08:59:43;25.20;24.20
3356;DHT22;1691;52.486;13.374;2023-04-06T09:02:17;25.30;23.90
3356;DHT22;1691;52.486;13.374;2023-04-06T09:04:47;25.20;23.50
3356;DHT22;1691;52.486;13.374;2023-04-06T09:07:15;25.10;23.40
3356;DHT22;1691;52.486;13.374;2023-04-06T09:09:43;24.80;23.10
3356;DHT22;1691;52.486;13.374;2023-04-06T09:12:28;24.70;23.20
3356;DHT22;1691;52.486;13.374;2023-04-06T09:14:56;24.60;22.80
3356;DHT22;1691;52.486;13.374;2023-04-06T09:17:27;24.30;23.00
3356;DHT22;1691;52.486;13.374;2023-04-06T09:19:56;24.20;23.40
3356;DHT22;1691;52.486;13.374;2023-04-06T09:22:23;24.10;23.50
3356;DHT22;1691;52.486;13.374;2023-04-06T09:24:55;24.20;23.40
3356;DHT22;1691;52.486;13.374;2023-04-06T09:27:33;24.10;22.90
3356;DHT22;1691;52.486;13.374;2023-04-06T09:32:49;23.50;23.00
3356;DHT22;1691;52.486;13.374;2023-04-06T09:35:18;23.20;22.90
3356;DHT22;1691;52.486;13.374;2023-04-06T09:37:50;23.10;23.30
3356;DHT22;1691;52.486;13.374;2023-04-06T09:40:19;23.20;23.40
3356;DHT22;1691;52.486;13.374;2023-04-06T09:42:49;23.10;23.10
3356;DHT22;1691;52.486;13.374;2023-04-06T09:45:19;22.90;23.00
3356;DHT22;1691;52.486;13.374;2023-04-06T09:47:47;22.90;23.00
3356;DHT22;1691;52.486;13.374;2023-04-06T09:50:19;23.10;23.30
3356;DHT22;1691;52.486;13.374;2023-04-06T09:52:50;23.60;23.20
3356;DHT22;1691;52.486;13.374;2023-04-06T09:55:32;23.80;22.90
3356;DHT22;1691;52.486;13.374;2023-04-06T09:58:05;23.80;22.80
3356;DHT22;1691;52.486;13.374;2023-04-06T10:00:48;24.10;22.80
3356;DHT22;1691;52.486;13.374;2023-04-06T10:03:56;24.40;22.30
3356;DHT22;1691;52.486;13.374;2023-04-06T10:06:46;24.40;21.70
3356;DHT22;1691;52.486;13.374;2023-04-06T10:09:22;24.00;22.10
3356;DHT22;1691;52.486;13.374;2023-04-06T10:11:52;23.90;21.90
3356;DHT22;1691;52.486;13.374;2023-04-06T10:14:19;23.70;21.80
3356;DHT22;1691;52.486;13.374;2023-04-06T10:16:48;23.60;22.00
3356;DHT22;1691;52.486;13.374;2023-04-06T10:19:22;23.80;21.50
3356;DHT22;1691;52.486;13.374;2023-04-06T10:21:55;23.80;21.50
3356;DHT22;1691;52.486;13.374;2023-04-06T10:24:24;23.70;21.70
3356;DHT22;1691;52.486;13.374;2023-04-06T10:27:27;23.80;21.60
3356;DHT22;1691;52.486;13.374;2023-04-06T10:30:04;23.60;21.40
3356;DHT22;1691;52.486;13.374;2023-04-06T10:32:39;23.00;21.80
3356;DHT22;1691;52.486;13.374;2023-04-06T10:35:10;22.30;21.60
3356;DHT22;1691;52.486;13.374;2023-04-06T10:38:08;21.60;21.80
3356;DHT22;1691;52.486;13.374;2023-04-06T10:40:37;20.90;21.90
3356;DHT22;1691;52.486;13.374;2023-04-06T10:43:09;20.50;22.60
3356;DHT22;1691;52.486;13.374;2023-04-06T10:45:41;20.30;22.50
3356;DHT22;1691;52.486;13.374;2023-04-06T10:48:17;19.70;22.50
3356;DHT22;1691;52.486;13.374;2023-04-06T10:50:48;19.10;23.20
3356;DHT22;1691;52.486;13.374;2023-04-06T10:53:25;18.60;23.70
3356;DHT22;1691;52.486;13.374;2023-04-06T10:55:56;18.40;23.90
3356;DHT22;1691;52.486;13.374;2023-04-06T10:58:27;18.20;24.10
3356;DHT22;1691;52.486;13.374;2023-04-06T11:00:54;18.10;24.00
3356;DHT22;1691;52.486;13.374;2023-04-06T11:03:26;17.80;24.00
3356;DHT22;1691;52.486;13.374;2023-04-06T11:05:54;17.40;24.40
3356;DHT22;1691;52.486;13.374;2023-04-06T11:08:31;16.70;24.60
3356;DHT22;1691;52.486;13.374;2023-04-06T11:11:07;15.90;25.30
3356;DHT22;1691;52.486;13.374;2023-04-06T11:13:48;15.60;25.90
3356;DHT22;1691;52.486;13.374;2023-04-06T11:16:29;15.40;26.00
3356;DHT22;1691;52.486;13.374;2023-04-06T11:19:02;15.00;26.00
3356;DHT22;1691;52.486;13.374;2023-04-06T11:21:35;14.80;26.40
3356;DHT22;1691;52.486;13.374;2023-04-06T11:24:11;14.70;26.70
3356;DHT22;1691;52.486;13.374;2023-04-06T11:26:48;14.70;26.90
3356;DHT22;1691;52.486;13.374;2023-04-06T11:29:19;14.50;27.00
3356;DHT22;1691;52.486;13.374;2023-04-06T11:31:52;14.30;27.20
3356;DHT22;1691;52.486;13.374;2023-04-06T11:34:30;14.00;27.60
3356;DHT22;1691;52.486;13.374;2023-04-06T11:37:01;13.80;27.90
3356;DHT22;1691;52.486;13.374;2023-04-06T11:39:38;13.60;28.10
3356;DHT22;1691;52.486;13.374;2023-04-06T11:42:07;13.40;28.30
3356;DHT22;1691;52.486;13.374;2023-04-06T11:44:38;13.20;28.50
3356;DHT22;1691;52.486;13.374;2023-04-06T11:47:10;12.90;28.80
3356;DHT22;1691;52.486;13.374;2023-04-06T11:49:39;12.80;29.00
3356;DHT22;1691;52.486;13.374;2023-04-06T11:52:34;12.80;29.10
3356;DHT22;1691;52.486;13.374;2023-04-06T11:57:41;12.80;29.00
3356;DHT22;1691;52.486;13.374;2023-04-06T12:00:10;12.70;29.00
3356;DHT22;1691;52.486;13.374;2023-04-06T12:02:38;12.60;29.00
3356;DHT22;1691;52.486;13.374;2023-04-06T12:05:06;12.50;29.30
3356;DHT22;1691;52.486;13.374;2023-04-06T12:07:35;12.50;29.50
3356;DHT22;1691;52.486;13.374;2023-04-06T12:10:03;12.50;29.70
3356;DHT22;1691;52.486;13.374;2023-04-06T12:12:31;12.50;29.80
3356;DHT22;1691;52.486;13.374;2023-04-06T12:14:58;12.50;29.90
3356;DHT22;1691;52.486;13.374;2023-04-06T12:17:26;12.60;29.90
3356;DHT22;1691;52.486;13.374;2023-04-06T12:19:53;12.60;29.80
3356;DHT22;1691;52.486;13.374;2023-04-06T12:22:24;12.50;29.80
3356;DHT22;1691;52.486;13.374;2023-04-06T12:24:51;12.40;29.90
3356;DHT22;1691;52.486;13.374;2023-04-06T12:27:18;12.30;29.90
3356;DHT22;1691;52.486;13.374;2023-04-06T12:29:46;12.20;30.20
3356;DHT22;1691;52.486;13.374;2023-04-06T12:32:14;12.20;30.20
3356;DHT22;1691;52.486;13.374;2023-04-06T12:34:42;12.10;30.10
3356;DHT22;1691;52.486;13.374;2023-04-06T12:37:09;12.10;30.20
3356;DHT22;1691;52.486;13.374;2023-04-06T12:39:36;12.10;30.40
3356;DHT22;1691;52.486;13.374;2023-04-06T12:42:03;12.10;30.40
3356;DHT22;1691;52.486;13.374;2023-04-06T12:44:31;12.10;30.50
3356;DHT22;1691;52.486;13.374;2023-04-06T12:46:58;12.20;30.70
3356;DHT22;1691;52.486;13.374;2023-04-06T12:49:26;12.20;30.90
3356;DHT22;1691;52.486;13.374;2023-04-06T12:51:53;12.20;30.90
3356;DHT22;1691;52.486;13.374;2023-04-06T12:54:20;12.20;31.20
3356;DHT22;1691;52.486;13.374;2023-04-06T12:56:47;12.10;31.50
3356;DHT22;1691;52.486;13.374;2023-04-06T12:59:14;12.20;31.50
3356;DHT22;1691;52.486;13.374;2023-04-06T13:01:41;12.20;31.50
3356;DHT22;1691;52.486;13.374;2023-04-06T13:04:08;12.30;31.50
3356;DHT22;1691;52.486;13.374;2023-04-06T13:06:35;12.30;31.50
3356;DHT22;1691;52.486;13.374;2023-04-06T13:09:03;12.40;31.30
3356;DHT22;1691;52.486;13.374;2023-04-06T13:11:32;12.30;31.50
3356;DHT22;1691;52.486;13.374;2023-04-06T13:13:59;12.30;31.60
3356;DHT22;1691;52.486;13.374;2023-04-06T13:16:26;12.30;31.80
3356;DHT22;1691;52.486;13.374;2023-04-06T13:18:54;12.40;31.90
3356;DHT22;1691;52.486;13.374;2023-04-06T13:21:21;12.40;31.60
3356;DHT22;1691;52.486;13.374;2023-04-06T13:23:48;12.40;31.50
3356;DHT22;1691;52.486;13.374;2023-04-06T13:26:15;12.50;31.50
3356;DHT22;1691;52.486;13.374;2023-04-06T13:28:43;12.60;31.50
3356;DHT22;1691;52.486;13.374;2023-04-06T13:31:10;12.60;31.50
3356;DHT22;1691;52.486;13.374;2023-04-06T13:33:38;12.60;31.60
3356;DHT22;1691;52.486;13.374;2023-04-06T13:36:07;12.60;31.80
3356;DHT22;1691;52.486;13.374;2023-04-06T13:38:35;12.60;31.90
3356;DHT22;1691;52.486;13.374;2023-04-06T13:41:05;12.70;32.20
3356;DHT22;1691;52.486;13.374;2023-04-06T13:43:32;12.70;32.20
3356;DHT22;1691;52.486;13.374;2023-04-06T13:46:00;12.60;32.10
3356;DHT22;1691;52.486;13.374;2023-04-06T13:48:28;12.50;32.20
3356;DHT22;1691;52.486;13.374;2023-04-06T13:50:55;12.50;32.40
3356;DHT22;1691;52.486;13.374;2023-04-06T13:53:22;12.40;32.50
3356;DHT22;1691;52.486;13.374;2023-04-06T13:55:53;12.40;32.50
3356;DHT22;1691;52.486;13.374;2023-04-06T13:58:21;12.40;32.50
3356;DHT22;1691;52.486;13.374;2023-04-06T14:00:48;12.40;32.50
3356;DHT22;1691;52.486;13.374;2023-04-06T14:03:15;12.30;32.50
3356;DHT22;1691;52.486;13.374;2023-04-06T14:05:42;12.30;32.50
3356;DHT22;1691;52.486;13.374;2023-04-06T14:08:11;12.30;32.70
3356;DHT22;1691;52.486;13.374;2023-04-06T14:10:39;12.30;33.20
3356;DHT22;1691;52.486;13.374;2023-04-06T14:13:07;12.40;33.50
3356;DHT22;1691;52.486;13.374;2023-04-06T14:15:35;12.40;33.30
3356;DHT22;1691;52.486;13.374;2023-04-06T14:18:02;12.40;33.00
3356;DHT22;1691;52.486;13.374;2023-04-06T14:20:31;12.40;33.20
3356;DHT22;1691;52.486;13.374;2023-04-06T14:23:03;12.40;33.00
3356;DHT22;1691;52.486;13.374;2023-04-06T14:25:30;12.30;33.00
3356;DHT22;1691;52.486;13.374;2023-04-06T14:28:01;12.30;33.20
3356;DHT22;1691;52.486;13.374;2023-04-06T14:30:30;12.40;33.00
3356;DHT22;1691;52.486;13.374;2023-04-06T14:32:57;12.40;33.00
3356;DHT22;1691;52.486;13.374;2023-04-06T14:35:25;12.40;33.20
3356;DHT22;1691;52.486;13.374;2023-04-06T14:37:55;12.60;33.20
3356;DHT22;1691;52.486;13.374;2023-04-06T14:40:25;12.70;33.30
3356;DHT22;1691;52.486;13.374;2023-04-06T14:42:52;12.70;33.30
3356;DHT22;1691;52.486;13.374;2023-04-06T14:45:19;12.70;33.30
3356;DHT22;1691;52.486;13.374;2023-04-06T14:47:48;12.70;33.60
3356;DHT22;1691;52.486;13.374;2023-04-06T14:50:15;12.70;33.80
3356;DHT22;1691;52.486;13.374;2023-04-06T14:52:42;12.70;33.60
3356;DHT22;1691;52.486;13.374;2023-04-06T14:55:09;12.60;33.30
3356;DHT22;1691;52.486;13.374;2023-04-06T14:57:36;12.50;33.30
3356;DHT22;1691;52.486;13.374;2023-04-06T15:00:04;12.50;33.50
3356;DHT22;1691;52.486;13.374;2023-04-06T15:02:34;12.40;33.60
3356;DHT22;1691;52.486;13.374;2023-04-06T15:05:02;12.40;33.60
3356;DHT22;1691;52.486;13.374;2023-04-06T15:07:30;12.40;33.50
3356;DHT22;1691;52.486;13.374;2023-04-06T15:09:57;12.30;33.50
3356;DHT22;1691;52.486;13.374;2023-04-06T15:12:24;12.20;33.80
3356;DHT22;1691;52.486;13.374;2023-04-06T15:14:51;12.20;34.20
3356;DHT22;1691;52.486;13.374;2023-04-06T15:17:18;12.10;34.40
3356;DHT22;1691;52.486;13.374;2023-04-06T15:19:45;12.10;34.50
3356;DHT22;1691;52.486;13.374;2023-04-06T15:22:12;12.10;34.70
3356;DHT22;1691;52.486;13.374;2023-04-06T15:24:39;12.00;34.90
3356;DHT22;1691;52.486;13.374;2023-04-06T15:27:06;12.00;34.90
3356;DHT22;1691;52.486;13.374;2023-04-06T15:29:33;12.00;35.20
3356;DHT22;1691;52.486;13.374;2023-04-06T15:32:00;12.00;35.30
3356;DHT22;1691;52.486;13.374;2023-04-06T15:34:30;12.00;35.30
3356;DHT22;1691;52.486;13.374;2023-04-06T15:37:02;11.90;35.30
3356;DHT22;1691;52.486;13.374;2023-04-06T15:39:31;11.80;35.30
3356;DHT22;1691;52.486;13.374;2023-04-06T15:41:59;11.80;35.50
3356;DHT22;1691;52.486;13.374;2023-04-06T15:44:26;11.70;35.60
3356;DHT22;1691;52.486;13.374;2023-04-06T15:46:53;11.60;35.90
3356;DHT22;1691;52.486;13.374;2023-04-06T15:49:21;11.60;35.90
3356;DHT22;1691;52.486;13.374;2023-04-06T15:51:49;11.60;36.10
3356;DHT22;1691;52.486;13.374;2023-04-06T15:54:17;11.60;36.10
3356;DHT22;1691;52.486;13.374;2023-04-06T15:56:47;11.50;36.20
3356;DHT22;1691;52.486;13.374;2023-04-06T15:59:15;11.50;36.20
3356;DHT22;1691;52.486;13.374;2023-04-06T16:01:42;11.50;36.40
3356;DHT22;1691;52.486;13.374;2023-04-06T16:04:10;11.50;36.20
3356;DHT22;1691;52.486;13.374;2023-04-06T16:06:38;11.40;36.10